Data Viewer
| City | State | Eastern Time | Source | Temp | DewPt | RH | BP | 5 Min Precip | Wind Speed | Wind Dir | 5 Min Wind Max | 5 Min Wind Max Dir |
|---|---|---|---|---|---|---|---|---|---|---|---|---|
| New Brunswick | NJ | 2026-05-08 19:35 | Mesonet | 60 | 42 | 51 | 29.88 | 0.00 | 0 | W | 2 | W |
| New Brunswick | NJ | 2026-05-09 11:25 | Mesonet | 65 | 50 | 57 | 29.89 | 0.00 | 6 | SSW | 12 | WSW |
| New Brunswick | NJ | 2026-05-09 11:55 | Mesonet | 67 | 51 | 57 | 29.89 | 0.00 | 9 | SW | 10 | SW |
| New Brunswick | NJ | 2026-05-09 11:50 | Mesonet | 67 | 50 | 56 | 29.89 | 0.00 | 6 | SW | 10 | SSW |
| New Brunswick | NJ | 2026-05-09 11:45 | Mesonet | 66 | 50 | 55 | 29.89 | 0.00 | 4 | WSW | 15 | WSW |
| New Brunswick | NJ | 2026-05-09 11:40 | Mesonet | 66 | 50 | 55 | 29.89 | 0.00 | 7 | WSW | 14 | W |
| New Brunswick | NJ | 2026-05-09 11:35 | Mesonet | 66 | 50 | 56 | 29.89 | 0.00 | 10 | WSW | 12 | SW |
| New Brunswick | NJ | 2026-05-09 11:30 | Mesonet | 65 | 49 | 56 | 29.89 | 0.00 | 6 | SW | 14 | WSW |
| New Brunswick | NJ | 2026-05-09 11:20 | Mesonet | 65 | 50 | 57 | 29.89 | 0.00 | 10 | WSW | 11 | WSW |
| New Brunswick | NJ | 2026-05-09 12:05 | Mesonet | 66 | 52 | 59 | 29.88 | 0.00 | 3 | SW | 14 | SW |
| New Brunswick | NJ | 2026-05-09 11:15 | Mesonet | 65 | 49 | 56 | 29.89 | 0.00 | 8 | S | 11 | SW |
| New Brunswick | NJ | 2026-05-09 11:10 | Mesonet | 65 | 51 | 59 | 29.89 | 0.00 | 5 | WSW | 8 | SSW |
| New Brunswick | NJ | 2026-05-09 11:05 | Mesonet | 65 | 51 | 60 | 29.89 | 0.00 | 4 | WNW | 8 | SSW |
| New Brunswick | NJ | 2026-05-09 11:00 | Mesonet | 65 | 51 | 60 | 29.90 | 0.00 | 2 | SSW | 11 | WSW |
| New Brunswick | NJ | 2026-05-09 10:55 | Mesonet | 65 | 51 | 60 | 29.89 | 0.00 | 9 | WSW | 12 | SSW |
| New Brunswick | NJ | 2026-05-09 10:50 | Mesonet | 65 | 51 | 61 | 29.89 | 0.00 | 5 | S | 11 | WSW |
| New Brunswick | NJ | 2026-05-09 12:00 | Mesonet | 67 | 51 | 56 | 29.89 | 0.00 | 12 | SSW | 14 | SW |
| New Brunswick | NJ | 2026-05-09 12:10 | Mesonet | 66 | 51 | 57 | 29.88 | 0.00 | 10 | WSW | 17 | SW |
| New Brunswick | NJ | 2026-05-09 10:40 | Mesonet | 64 | 53 | 65 | 29.89 | 0.00 | 3 | NW | 7 | WSW |
| New Brunswick | NJ | 2026-05-09 12:55 | Mesonet | 65 | 49 | 56 | 29.86 | 0.00 | 11 | SSW | 14 | WSW |
| New Brunswick | NJ | 2026-05-09 13:25 | Mesonet | 66 | 49 | 54 | 29.85 | 0.00 | 3 | WNW | 10 | WSW |
| New Brunswick | NJ | 2026-05-09 13:20 | Mesonet | 66 | 48 | 52 | 29.86 | 0.00 | 4 | W | 13 | WNW |
| New Brunswick | NJ | 2026-05-09 13:15 | Mesonet | 67 | 50 | 54 | 29.85 | 0.00 | 2 | WNW | 10 | WNW |
| New Brunswick | NJ | 2026-05-09 13:10 | Mesonet | 67 | 50 | 55 | 29.86 | 0.00 | 3 | SW | 13 | WNW |
| New Brunswick | NJ | 2026-05-09 13:05 | Mesonet | 66 | 49 | 55 | 29.86 | 0.00 | 3 | W | 11 | WSW |
| New Brunswick | NJ | 2026-05-09 13:00 | Mesonet | 65 | 49 | 56 | 29.86 | 0.00 | 6 | WSW | 13 | WSW |
| New Brunswick | NJ | 2026-05-09 12:50 | Mesonet | 66 | 49 | 55 | 29.86 | 0.00 | 12 | SSW | 20 | SW |
| New Brunswick | NJ | 2026-05-09 12:15 | Mesonet | 67 | 51 | 57 | 29.88 | 0.00 | 9 | SW | 15 | WSW |
| New Brunswick | NJ | 2026-05-09 12:45 | Mesonet | 66 | 50 | 56 | 29.87 | 0.00 | 3 | WSW | 22 | SSW |
| New Brunswick | NJ | 2026-05-09 12:40 | Mesonet | 66 | 49 | 54 | 29.87 | 0.00 | 17 | SW | 18 | SSW |
| New Brunswick | NJ | 2026-05-09 12:35 | Mesonet | 67 | 50 | 54 | 29.88 | 0.00 | 16 | SW | 21 | SW |
| New Brunswick | NJ | 2026-05-09 12:30 | Mesonet | 68 | 50 | 51 | 29.88 | 0.00 | 12 | WSW | 15 | SW |
| New Brunswick | NJ | 2026-05-09 12:25 | Mesonet | 68 | 54 | 60 | 29.88 | 0.00 | 9 | WSW | 10 | SW |
| New Brunswick | NJ | 2026-05-09 12:20 | Mesonet | 68 | 51 | 55 | 29.88 | 0.00 | 5 | S | 12 | SSW |
| New Brunswick | NJ | 2026-05-09 10:45 | Mesonet | 65 | 51 | 62 | 29.89 | 0.00 | 5 | SSW | 10 | SSW |
| New Brunswick | NJ | 2026-05-09 10:35 | Mesonet | 65 | 51 | 59 | 29.89 | 0.00 | 2 | W | 6 | SW |
| New Brunswick | NJ | 2026-05-09 13:35 | Mesonet | 65 | 49 | 55 | 29.86 | 0.00 | 4 | WNW | 11 | NW |
| New Brunswick | NJ | 2026-05-09 08:25 | Mesonet | 56 | 48 | 73 | 29.92 | 0.00 | 2 | SE | 2 | SE |
| New Brunswick | NJ | 2026-05-09 08:55 | Mesonet | 58 | 48 | 69 | 29.91 | 0.00 | 1 | SW | 2 | SW |
| New Brunswick | NJ | 2026-05-09 08:50 | Mesonet | 58 | 49 | 73 | 29.91 | 0.00 | 1 | ESE | 3 | SE |
| New Brunswick | NJ | 2026-05-09 08:45 | Mesonet | 58 | 49 | 72 | 29.91 | 0.00 | 1 | SSE | 2 | E |
| New Brunswick | NJ | 2026-05-09 08:40 | Mesonet | 57 | 48 | 72 | 29.91 | 0.00 | 2 | SE | 3 | SSE |
| New Brunswick | NJ | 2026-05-09 08:35 | Mesonet | 57 | 48 | 72 | 29.91 | 0.00 | 2 | ESE | 3 | ESE |
| New Brunswick | NJ | 2026-05-09 08:30 | Mesonet | 56 | 47 | 71 | 29.91 | 0.00 | 2 | ESE | 3 | ESE |
| New Brunswick | NJ | 2026-05-09 08:20 | Mesonet | 56 | 48 | 74 | 29.92 | 0.00 | 1 | SSW | 2 | SSW |
| New Brunswick | NJ | 2026-05-09 09:05 | Mesonet | 58 | 49 | 72 | 29.90 | 0.00 | 2 | ESE | 4 | S |
| New Brunswick | NJ | 2026-05-09 08:15 | Mesonet | 56 | 47 | 72 | 29.92 | 0.00 | 1 | S | 2 | SE |
| New Brunswick | NJ | 2026-05-09 08:10 | Mesonet | 56 | 47 | 72 | 29.91 | 0.00 | 1 | SE | 1 | S |
| New Brunswick | NJ | 2026-05-09 08:05 | Mesonet | 56 | 46 | 70 | 29.92 | 0.00 | 0 | ESE | 3 | ESE |
| New Brunswick | NJ | 2026-05-09 08:00 | Mesonet | 56 | 47 | 71 | 29.92 | 0.00 | 2 | ESE | 3 | SSE |
| New Brunswick | NJ | 2026-05-09 07:55 | Mesonet | 56 | 46 | 71 | 29.92 | 0.00 | 1 | E | 2 | SSE |
| New Brunswick | NJ | 2026-05-09 07:50 | Mesonet | 56 | 46 | 71 | 29.92 | 0.00 | 0 | S | 4 | SE |
| New Brunswick | NJ | 2026-05-09 09:00 | Mesonet | 58 | 48 | 71 | 29.91 | 0.00 | 0 | SSW | 3 | S |
| New Brunswick | NJ | 2026-05-09 09:10 | Mesonet | 59 | 50 | 72 | 29.91 | 0.00 | 0 | SW | 4 | SSW |
| New Brunswick | NJ | 2026-05-09 10:30 | Mesonet | 64 | 51 | 64 | 29.89 | 0.00 | 7 | WSW | 8 | SW |
| New Brunswick | NJ | 2026-05-09 09:55 | Mesonet | 61 | 51 | 69 | 29.90 | 0.00 | 3 | S | 7 | SW |
| New Brunswick | NJ | 2026-05-09 10:25 | Mesonet | 63 | 52 | 67 | 29.90 | 0.00 | 2 | SSE | 7 | SW |
| New Brunswick | NJ | 2026-05-09 10:20 | Mesonet | 63 | 51 | 66 | 29.90 | 0.00 | 4 | S | 7 | SSE |
| New Brunswick | NJ | 2026-05-09 10:15 | Mesonet | 62 | 51 | 65 | 29.90 | 0.00 | 3 | SSW | 9 | SW |
| New Brunswick | NJ | 2026-05-09 10:10 | Mesonet | 62 | 51 | 67 | 29.90 | 0.00 | 6 | SW | 9 | SW |
| New Brunswick | NJ | 2026-05-09 10:05 | Mesonet | 62 | 51 | 67 | 29.90 | 0.00 | 6 | SW | 9 | SW |
| New Brunswick | NJ | 2026-05-09 10:00 | Mesonet | 62 | 52 | 70 | 29.90 | 0.00 | 2 | SW | 6 | WSW |
| New Brunswick | NJ | 2026-05-09 09:50 | Mesonet | 61 | 50 | 69 | 29.90 | 0.00 | 6 | SSW | 10 | SSE |
| New Brunswick | NJ | 2026-05-09 09:15 | Mesonet | 59 | 49 | 70 | 29.91 | 0.00 | 3 | S | 4 | S |
| New Brunswick | NJ | 2026-05-09 09:45 | Mesonet | 60 | 51 | 70 | 29.90 | 0.00 | 0 | WNW | 6 | SSW |
| New Brunswick | NJ | 2026-05-09 09:40 | Mesonet | 60 | 51 | 73 | 29.90 | 0.00 | 3 | WSW | 6 | SW |
| New Brunswick | NJ | 2026-05-09 09:35 | Mesonet | 59 | 50 | 71 | 29.90 | 0.00 | 5 | SSW | 5 | WSW |
| New Brunswick | NJ | 2026-05-09 09:30 | Mesonet | 59 | 50 | 71 | 29.90 | 0.00 | 1 | SW | 5 | SW |
| New Brunswick | NJ | 2026-05-09 09:25 | Mesonet | 59 | 50 | 72 | 29.91 | 0.00 | 1 | E | 3 | S |
| New Brunswick | NJ | 2026-05-09 09:20 | Mesonet | 59 | 49 | 70 | 29.90 | 0.00 | 3 | S | 4 | W |
| New Brunswick | NJ | 2026-05-09 13:30 | Mesonet | 66 | 48 | 54 | 29.86 | 0.00 | 4 | W | 8 | WNW |
| New Brunswick | NJ | 2026-05-09 13:40 | Mesonet | 65 | 50 | 58 | 29.86 | 0.00 | 4 | W | 11 | W |
| New Brunswick | NJ | 2026-05-09 07:40 | Mesonet | 56 | 46 | 70 | 29.92 | 0.00 | 3 | SSE | 4 | SE |
| New Brunswick | NJ | 2026-05-09 17:25 | Mesonet | 58 | 52 | 80 | 29.88 | 0.00 | 2 | NNE | 5 | NW |
| New Brunswick | NJ | 2026-05-09 17:55 | Mesonet | 56 | 54 | 96 | 29.87 | 0.02 | 2 | NE | 3 | NE |
| New Brunswick | NJ | 2026-05-09 17:50 | Mesonet | 56 | 54 | 94 | 29.88 | 0.02 | 0 | SSE | 1 | SSW |
| New Brunswick | NJ | 2026-05-09 17:45 | Mesonet | 56 | 54 | 93 | 29.88 | 0.03 | 1 | SSW | 1 | SSW |
| New Brunswick | NJ | 2026-05-09 17:40 | Mesonet | 56 | 54 | 92 | 29.88 | 0.02 | 1 | NW | 1 | N |
| New Brunswick | NJ | 2026-05-09 17:35 | Mesonet | 57 | 53 | 88 | 29.88 | 0.00 | 1 | NE | 4 | NE |
| New Brunswick | NJ | 2026-05-09 17:30 | Mesonet | 58 | 53 | 84 | 29.87 | 0.01 | 1 | NNE | 2 | NNE |
| New Brunswick | NJ | 2026-05-09 17:20 | Mesonet | 58 | 51 | 77 | 29.88 | 0.00 | 4 | NW | 7 | W |
| New Brunswick | NJ | 2026-05-09 18:05 | Mesonet | 56 | 55 | 96 | 29.87 | 0.01 | 2 | NNE | 2 | ENE |
| New Brunswick | NJ | 2026-05-09 17:15 | Mesonet | 59 | 51 | 75 | 29.87 | 0.00 | 1 | W | 7 | WNW |
| New Brunswick | NJ | 2026-05-09 17:10 | Mesonet | 60 | 52 | 75 | 29.86 | 0.00 | 5 | NW | 6 | NE |
| New Brunswick | NJ | 2026-05-09 17:05 | Mesonet | 60 | 51 | 72 | 29.86 | 0.00 | 3 | NNE | 6 | NE |
| New Brunswick | NJ | 2026-05-09 17:00 | Mesonet | 59 | 50 | 72 | 29.86 | 0.00 | 4 | NNE | 5 | NNE |
| New Brunswick | NJ | 2026-05-09 16:55 | Mesonet | 59 | 50 | 72 | 29.87 | 0.00 | 2 | WNW | 6 | WNW |
| New Brunswick | NJ | 2026-05-09 16:50 | Mesonet | 59 | 51 | 74 | 29.87 | 0.00 | 2 | WNW | 5 | NW |
| New Brunswick | NJ | 2026-05-09 18:00 | Mesonet | 56 | 55 | 97 | 29.87 | 0.01 | 0 | ENE | 3 | NE |
| New Brunswick | NJ | 2026-05-09 18:10 | Mesonet | 57 | 55 | 93 | 29.86 | 0.01 | 1 | NE | 4 | NE |
| New Brunswick | NJ | 2026-05-09 16:40 | Mesonet | 60 | 51 | 72 | 29.87 | 0.00 | 2 | NNW | 6 | NE |
| New Brunswick | NJ | 2026-05-09 18:55 | Mesonet | 57 | 55 | 92 | 29.86 | 0.00 | 2 | E | 2 | NNE |
| New Brunswick | NJ | 2026-05-09 19:25 | Mesonet | 55 | 54 | 95 | 29.85 | 0.00 | 2 | E | 2 | NE |
| New Brunswick | NJ | 2026-05-09 19:20 | Mesonet | 56 | 54 | 94 | 29.85 | 0.00 | 1 | N | 3 | E |
| New Brunswick | NJ | 2026-05-09 19:15 | Mesonet | 56 | 54 | 93 | 29.85 | 0.00 | 2 | E | 4 | E |
| New Brunswick | NJ | 2026-05-09 19:10 | Mesonet | 56 | 54 | 93 | 29.85 | 0.00 | 2 | NE | 4 | NNE |
| New Brunswick | NJ | 2026-05-09 19:05 | Mesonet | 57 | 55 | 92 | 29.85 | 0.00 | 1 | NNE | 3 | NNE |
| New Brunswick | NJ | 2026-05-09 19:00 | Mesonet | 57 | 55 | 92 | 29.86 | 0.00 | 3 | NNE | 4 | NNE |
| New Brunswick | NJ | 2026-05-09 18:50 | Mesonet | 57 | 55 | 92 | 29.86 | 0.00 | 2 | NNE | 2 | NNE |
| New Brunswick | NJ | 2026-05-09 18:15 | Mesonet | 57 | 55 | 92 | 29.86 | 0.00 | 2 | ESE | 3 | SE |
| New Brunswick | NJ | 2026-05-09 18:45 | Mesonet | 57 | 55 | 91 | 29.86 | 0.00 | 1 | ESE | 5 | E |
| New Brunswick | NJ | 2026-05-09 18:40 | Mesonet | 57 | 55 | 92 | 29.85 | 0.00 | 3 | E | 4 | E |
| New Brunswick | NJ | 2026-05-09 18:35 | Mesonet | 57 | 55 | 93 | 29.86 | 0.00 | 0 | ESE | 2 | ENE |
| New Brunswick | NJ | 2026-05-09 18:30 | Mesonet | 57 | 55 | 92 | 29.86 | 0.00 | 1 | ENE | 2 | ENE |
| New Brunswick | NJ | 2026-05-09 18:25 | Mesonet | 57 | 55 | 93 | 29.86 | 0.01 | 1 | SE | 2 | ENE |
| New Brunswick | NJ | 2026-05-09 18:20 | Mesonet | 57 | 55 | 94 | 29.86 | 0.00 | 0 | SSE | 2 | SE |
| New Brunswick | NJ | 2026-05-09 16:45 | Mesonet | 59 | 51 | 72 | 29.87 | 0.00 | 2 | N | 4 | N |
| New Brunswick | NJ | 2026-05-09 16:35 | Mesonet | 60 | 50 | 71 | 29.86 | 0.00 | 0 | WNW | 5 | N |
| New Brunswick | NJ | 2026-05-09 13:45 | Mesonet | 65 | 48 | 56 | 29.86 | 0.00 | 11 | W | 12 | NW |
| New Brunswick | NJ | 2026-05-09 14:25 | Mesonet | 61 | 54 | 78 | 29.87 | 0.00 | 1 | NNE | 9 | NW |
| New Brunswick | NJ | 2026-05-09 14:55 | Mesonet | 61 | 53 | 75 | 29.86 | 0.00 | 4 | W | 9 | WNW |
| New Brunswick | NJ | 2026-05-09 14:50 | Mesonet | 61 | 53 | 74 | 29.86 | 0.00 | 2 | N | 8 | N |
| New Brunswick | NJ | 2026-05-09 14:45 | Mesonet | 61 | 53 | 74 | 29.86 | 0.00 | 4 | NNW | 6 | WNW |
| New Brunswick | NJ | 2026-05-09 14:40 | Mesonet | 61 | 53 | 75 | 29.86 | 0.00 | 3 | NW | 7 | N |
| New Brunswick | NJ | 2026-05-09 14:35 | Mesonet | 61 | 54 | 77 | 29.86 | 0.00 | 3 | N | 8 | NNE |
| New Brunswick | NJ | 2026-05-09 14:30 | Mesonet | 61 | 52 | 73 | 29.87 | 0.00 | 4 | NNW | 7 | WNW |
| New Brunswick | NJ | 2026-05-09 14:20 | Mesonet | 61 | 53 | 74 | 29.88 | 0.01 | 3 | NNW | 8 | NW |
| New Brunswick | NJ | 2026-05-09 15:05 | Mesonet | 61 | 52 | 72 | 29.86 | 0.00 | 8 | WNW | 14 | W |
| New Brunswick | NJ | 2026-05-09 14:15 | Mesonet | 61 | 53 | 75 | 29.88 | 0.00 | 5 | W | 9 | WNW |
| New Brunswick | NJ | 2026-05-09 14:10 | Mesonet | 61 | 52 | 71 | 29.88 | 0.00 | 3 | WNW | 7 | WNW |
| New Brunswick | NJ | 2026-05-09 14:05 | Mesonet | 62 | 51 | 69 | 29.87 | 0.00 | 5 | WNW | 10 | W |
| New Brunswick | NJ | 2026-05-09 14:00 | Mesonet | 62 | 51 | 65 | 29.87 | 0.00 | 6 | WNW | 12 | W |
| New Brunswick | NJ | 2026-05-09 13:55 | Mesonet | 64 | 49 | 60 | 29.87 | 0.00 | 8 | WNW | 12 | W |
| New Brunswick | NJ | 2026-05-09 13:50 | Mesonet | 64 | 49 | 58 | 29.87 | 0.00 | 7 | WSW | 9 | W |
| New Brunswick | NJ | 2026-05-09 15:00 | Mesonet | 61 | 53 | 73 | 29.87 | 0.00 | 6 | W | 10 | WNW |
| New Brunswick | NJ | 2026-05-09 15:10 | Mesonet | 60 | 52 | 73 | 29.87 | 0.00 | 7 | WNW | 14 | NW |
| New Brunswick | NJ | 2026-05-09 16:30 | Mesonet | 60 | 51 | 72 | 29.87 | 0.00 | 2 | N | 6 | N |
| New Brunswick | NJ | 2026-05-09 15:55 | Mesonet | 60 | 52 | 75 | 29.87 | 0.00 | 5 | W | 12 | WNW |
| New Brunswick | NJ | 2026-05-09 16:25 | Mesonet | 60 | 52 | 75 | 29.87 | 0.00 | 1 | NNW | 6 | NNE |
| New Brunswick | NJ | 2026-05-09 16:20 | Mesonet | 59 | 51 | 75 | 29.87 | 0.00 | 3 | NNE | 8 | NNE |
| New Brunswick | NJ | 2026-05-09 16:15 | Mesonet | 59 | 51 | 74 | 29.87 | 0.00 | 2 | NNE | 8 | N |
| New Brunswick | NJ | 2026-05-09 16:10 | Mesonet | 59 | 51 | 74 | 29.87 | 0.00 | 2 | NW | 5 | WNW |
| New Brunswick | NJ | 2026-05-09 16:05 | Mesonet | 60 | 51 | 73 | 29.87 | 0.00 | 4 | WNW | 6 | NW |
| New Brunswick | NJ | 2026-05-09 16:00 | Mesonet | 59 | 51 | 74 | 29.87 | 0.00 | 6 | NNW | 11 | WNW |
| New Brunswick | NJ | 2026-05-09 15:50 | Mesonet | 60 | 52 | 76 | 29.87 | 0.00 | 0 | NE | 9 | NW |
| New Brunswick | NJ | 2026-05-09 15:15 | Mesonet | 60 | 51 | 72 | 29.87 | 0.00 | 4 | NNW | 13 | NW |
| New Brunswick | NJ | 2026-05-09 15:45 | Mesonet | 59 | 51 | 74 | 29.86 | 0.00 | 5 | WSW | 8 | WNW |
| New Brunswick | NJ | 2026-05-09 15:40 | Mesonet | 59 | 51 | 73 | 29.87 | 0.00 | 6 | W | 11 | NW |
| New Brunswick | NJ | 2026-05-09 15:35 | Mesonet | 59 | 51 | 73 | 29.87 | 0.00 | 9 | NW | 12 | W |
| New Brunswick | NJ | 2026-05-09 15:30 | Mesonet | 60 | 51 | 73 | 29.87 | 0.00 | 2 | NNE | 13 | WNW |
| New Brunswick | NJ | 2026-05-09 15:25 | Mesonet | 60 | 51 | 73 | 29.87 | 0.00 | 6 | NW | 14 | WNW |
| New Brunswick | NJ | 2026-05-09 15:20 | Mesonet | 60 | 51 | 73 | 29.87 | 0.00 | 7 | WNW | 10 | WNW |
| New Brunswick | NJ | 2026-05-09 07:45 | Mesonet | 56 | 46 | 70 | 29.92 | 0.00 | 2 | ESE | 4 | SSE |
| New Brunswick | NJ | 2026-05-09 07:35 | Mesonet | 55 | 46 | 70 | 29.92 | 0.00 | 0 | ESE | 4 | ESE |
| New Brunswick | NJ | 2026-05-08 19:40 | Mesonet | 59 | 40 | 48 | 29.88 | 0.00 | 1 | N | 4 | WNW |
| New Brunswick | NJ | 2026-05-08 23:20 | Mesonet | 54 | 45 | 71 | 29.93 | 0.00 | 0 | NNW | 1 | NNW |
| New Brunswick | NJ | 2026-05-08 23:50 | Mesonet | 53 | 45 | 74 | 29.93 | 0.00 | 1 | SE | 1 | SE |
| New Brunswick | NJ | 2026-05-08 23:45 | Mesonet | 53 | 45 | 72 | 29.93 | 0.00 | 0 | N | 2 | N |
| New Brunswick | NJ | 2026-05-08 23:40 | Mesonet | 53 | 45 | 72 | 29.93 | 0.00 | 1 | NNE | 3 | NNW |
| New Brunswick | NJ | 2026-05-08 23:35 | Mesonet | 54 | 44 | 70 | 29.93 | 0.00 | 2 | N | 3 | NNE |
| New Brunswick | NJ | 2026-05-08 23:30 | Mesonet | 54 | 44 | 69 | 29.93 | 0.00 | 3 | NNE | 3 | N |
| New Brunswick | NJ | 2026-05-08 23:25 | Mesonet | 54 | 43 | 67 | 29.93 | 0.00 | 1 | N | 2 | N |
| New Brunswick | NJ | 2026-05-08 23:15 | Mesonet | 54 | 45 | 71 | 29.93 | 0.00 | 0 | NW | 1 | NW |
| New Brunswick | NJ | 2026-05-09 00:00 | Mesonet | 53 | 43 | 71 | 29.93 | 0.00 | 0 | ESE | 1 | E |
| New Brunswick | NJ | 2026-05-08 23:10 | Mesonet | 54 | 42 | 64 | 29.93 | 0.00 | 0 | NNE | 2 | NNE |
| New Brunswick | NJ | 2026-05-08 23:05 | Mesonet | 55 | 43 | 63 | 29.93 | 0.00 | 0 | WNW | 2 | NW |
| New Brunswick | NJ | 2026-05-08 23:00 | Mesonet | 55 | 43 | 62 | 29.93 | 0.00 | 1 | NW | 3 | NNW |
| New Brunswick | NJ | 2026-05-08 22:55 | Mesonet | 55 | 44 | 67 | 29.93 | 0.00 | 2 | N | 2 | N |
| New Brunswick | NJ | 2026-05-08 22:50 | Mesonet | 56 | 45 | 67 | 29.93 | 0.00 | 1 | ENE | 1 | ENE |
| New Brunswick | NJ | 2026-05-08 22:45 | Mesonet | 56 | 42 | 59 | 29.93 | 0.00 | 0 | E | 1 | E |
| New Brunswick | NJ | 2026-05-08 23:55 | Mesonet | 53 | 43 | 69 | 29.93 | 0.00 | 1 | E | 2 | E |
| New Brunswick | NJ | 2026-05-09 00:05 | Mesonet | 52 | 44 | 74 | 29.93 | 0.00 | 0 | ESE | 0 | ESE |
| New Brunswick | NJ | 2026-05-08 22:35 | Mesonet | 57 | 43 | 61 | 29.93 | 0.00 | 2 | ENE | 4 | E |
| New Brunswick | NJ | 2026-05-09 00:50 | Mesonet | 53 | 45 | 74 | 29.93 | 0.00 | 0 | N | 0 | N |
| New Brunswick | NJ | 2026-05-09 01:20 | Mesonet | 53 | 45 | 75 | 29.93 | 0.00 | 0 | NW | 0 | NW |
| New Brunswick | NJ | 2026-05-09 01:15 | Mesonet | 53 | 46 | 78 | 29.94 | 0.00 | 0 | NW | 1 | NW |
| New Brunswick | NJ | 2026-05-09 01:10 | Mesonet | 53 | 46 | 77 | 29.94 | 0.00 | 1 | NW | 2 | NNW |
| New Brunswick | NJ | 2026-05-09 01:05 | Mesonet | 53 | 46 | 76 | 29.94 | 0.00 | 1 | NNW | 2 | NNW |
| New Brunswick | NJ | 2026-05-09 01:00 | Mesonet | 53 | 46 | 76 | 29.94 | 0.00 | 0 | W | 1 | SSE |
| New Brunswick | NJ | 2026-05-09 00:55 | Mesonet | 53 | 45 | 73 | 29.94 | 0.00 | 1 | SSE | 2 | SSE |
| New Brunswick | NJ | 2026-05-09 00:45 | Mesonet | 53 | 45 | 74 | 29.93 | 0.00 | 0 | N | 1 | N |
| New Brunswick | NJ | 2026-05-09 00:10 | Mesonet | 52 | 45 | 76 | 29.93 | 0.00 | 0 | ESE | 1 | ESE |
| New Brunswick | NJ | 2026-05-09 00:40 | Mesonet | 53 | 45 | 74 | 29.93 | 0.00 | 0 | ESE | 0 | ESE |
| New Brunswick | NJ | 2026-05-09 00:35 | Mesonet | 53 | 45 | 74 | 29.93 | 0.00 | 0 | ESE | 2 | ESE |
| New Brunswick | NJ | 2026-05-09 00:30 | Mesonet | 53 | 45 | 77 | 29.94 | 0.00 | 1 | ESE | 2 | SE |
| New Brunswick | NJ | 2026-05-09 00:25 | Mesonet | 53 | 46 | 77 | 29.94 | 0.00 | 1 | SW | 2 | SW |
| New Brunswick | NJ | 2026-05-09 00:20 | Mesonet | 52 | 44 | 74 | 29.94 | 0.00 | 1 | ESE | 2 | ESE |
| New Brunswick | NJ | 2026-05-09 00:15 | Mesonet | 52 | 46 | 78 | 29.93 | 0.00 | 0 | ESE | 0 | ESE |
| New Brunswick | NJ | 2026-05-08 22:40 | Mesonet | 56 | 43 | 60 | 29.93 | 0.00 | 0 | ENE | 3 | NE |
| New Brunswick | NJ | 2026-05-08 22:30 | Mesonet | 57 | 42 | 57 | 29.94 | 0.00 | 0 | SW | 2 | W |
| New Brunswick | NJ | 2026-05-09 01:30 | Mesonet | 52 | 45 | 75 | 29.93 | 0.00 | 0 | ENE | 2 | ENE |
| New Brunswick | NJ | 2026-05-08 20:20 | Mesonet | 58 | 42 | 55 | 29.89 | 0.00 | 0 | NNE | 0 | NNE |
| New Brunswick | NJ | 2026-05-08 20:50 | Mesonet | 56 | 42 | 58 | 29.90 | 0.00 | 0 | E | 0 | ESE |
| New Brunswick | NJ | 2026-05-08 20:45 | Mesonet | 56 | 41 | 56 | 29.89 | 0.00 | 0 | ESE | 0 | ESE |
| New Brunswick | NJ | 2026-05-08 20:40 | Mesonet | 57 | 41 | 56 | 29.90 | 0.00 | 0 | ESE | 0 | ESE |
| New Brunswick | NJ | 2026-05-08 20:35 | Mesonet | 57 | 41 | 54 | 29.90 | 0.00 | 0 | ESE | 1 | ESE |
| New Brunswick | NJ | 2026-05-08 20:30 | Mesonet | 57 | 44 | 62 | 29.89 | 0.00 | 1 | ESE | 1 | ESE |
| New Brunswick | NJ | 2026-05-08 20:25 | Mesonet | 57 | 42 | 55 | 29.89 | 0.00 | 0 | NNE | 0 | NNE |
| New Brunswick | NJ | 2026-05-08 20:15 | Mesonet | 58 | 41 | 54 | 29.89 | 0.00 | 0 | NNE | 1 | NNE |
| New Brunswick | NJ | 2026-05-08 21:00 | Mesonet | 56 | 44 | 65 | 29.90 | 0.00 | 0 | E | 0 | ESE |
| New Brunswick | NJ | 2026-05-08 20:10 | Mesonet | 58 | 42 | 54 | 29.89 | 0.00 | 0 | NNE | 2 | N |
| New Brunswick | NJ | 2026-05-08 20:05 | Mesonet | 58 | 40 | 50 | 29.89 | 0.00 | 2 | NNE | 3 | N |
| New Brunswick | NJ | 2026-05-08 20:00 | Mesonet | 58 | 41 | 52 | 29.89 | 0.00 | 0 | N | 3 | NNE |
| New Brunswick | NJ | 2026-05-08 19:55 | Mesonet | 59 | 42 | 53 | 29.88 | 0.00 | 1 | NE | 4 | N |
| New Brunswick | NJ | 2026-05-08 19:50 | Mesonet | 60 | 39 | 47 | 29.88 | 0.00 | 3 | NNE | 3 | NNE |
| New Brunswick | NJ | 2026-05-08 19:45 | Mesonet | 59 | 38 | 46 | 29.88 | 0.00 | 2 | WNW | 4 | WNW |
| New Brunswick | NJ | 2026-05-08 20:55 | Mesonet | 56 | 42 | 60 | 29.90 | 0.00 | 0 | E | 0 | E |
| New Brunswick | NJ | 2026-05-08 21:05 | Mesonet | 56 | 45 | 66 | 29.91 | 0.00 | 0 | E | 0 | E |
| New Brunswick | NJ | 2026-05-08 22:25 | Mesonet | 58 | 42 | 55 | 29.94 | 0.00 | 0 | ENE | 3 | ESE |
| New Brunswick | NJ | 2026-05-08 21:50 | Mesonet | 57 | 43 | 60 | 29.93 | 0.00 | 2 | ESE | 5 | E |
| New Brunswick | NJ | 2026-05-08 22:20 | Mesonet | 58 | 41 | 53 | 29.94 | 0.00 | 4 | ESE | 4 | ESE |
| New Brunswick | NJ | 2026-05-08 22:15 | Mesonet | 58 | 42 | 55 | 29.94 | 0.00 | 1 | SE | 7 | SE |
| New Brunswick | NJ | 2026-05-08 22:10 | Mesonet | 58 | 42 | 55 | 29.94 | 0.00 | 0 | E | 4 | SE |
| New Brunswick | NJ | 2026-05-08 22:05 | Mesonet | 58 | 41 | 53 | 29.93 | 0.00 | 1 | SSE | 5 | E |
| New Brunswick | NJ | 2026-05-08 22:00 | Mesonet | 58 | 42 | 54 | 29.93 | 0.00 | 2 | ENE | 5 | ESE |
| New Brunswick | NJ | 2026-05-08 21:55 | Mesonet | 58 | 43 | 58 | 29.93 | 0.00 | 2 | ENE | 5 | ESE |
| New Brunswick | NJ | 2026-05-08 21:45 | Mesonet | 56 | 43 | 61 | 29.93 | 0.00 | 1 | E | 4 | ESE |
| New Brunswick | NJ | 2026-05-08 21:10 | Mesonet | 56 | 44 | 64 | 29.91 | 0.00 | 0 | E | 0 | E |
| New Brunswick | NJ | 2026-05-08 21:40 | Mesonet | 56 | 44 | 63 | 29.92 | 0.00 | 0 | ESE | 3 | E |
| New Brunswick | NJ | 2026-05-08 21:35 | Mesonet | 55 | 44 | 65 | 29.92 | 0.00 | 1 | ESE | 3 | E |
| New Brunswick | NJ | 2026-05-08 21:30 | Mesonet | 55 | 45 | 69 | 29.92 | 0.00 | 1 | ESE | 1 | ESE |
| New Brunswick | NJ | 2026-05-08 21:25 | Mesonet | 55 | 43 | 62 | 29.92 | 0.00 | 0 | ESE | 0 | E |
| New Brunswick | NJ | 2026-05-08 21:20 | Mesonet | 56 | 43 | 63 | 29.92 | 0.00 | 0 | E | 0 | E |
| New Brunswick | NJ | 2026-05-08 21:15 | Mesonet | 56 | 43 | 63 | 29.91 | 0.00 | 0 | E | 0 | E |
| New Brunswick | NJ | 2026-05-09 01:25 | Mesonet | 52 | 45 | 77 | 29.93 | 0.00 | 0 | NW | 0 | NW |
| New Brunswick | NJ | 2026-05-09 01:35 | Mesonet | 52 | 45 | 77 | 29.93 | 0.00 | 1 | ESE | 2 | ESE |
| New Brunswick | NJ | 2026-05-09 07:30 | Mesonet | 55 | 45 | 69 | 29.92 | 0.00 | 3 | SE | 5 | ESE |
| New Brunswick | NJ | 2026-05-09 05:25 | Mesonet | 54 | 44 | 68 | 29.91 | 0.00 | 0 | SSE | 2 | S |
| New Brunswick | NJ | 2026-05-09 05:55 | Mesonet | 53 | 46 | 77 | 29.91 | 0.00 | 0 | SSE | 1 | SSE |
| New Brunswick | NJ | 2026-05-09 05:50 | Mesonet | 53 | 45 | 75 | 29.91 | 0.00 | 1 | SSE | 1 | SSE |
| New Brunswick | NJ | 2026-05-09 05:45 | Mesonet | 53 | 44 | 71 | 29.91 | 0.00 | 0 | SSE | 0 | SSE |
| New Brunswick | NJ | 2026-05-09 05:40 | Mesonet | 54 | 44 | 69 | 29.91 | 0.00 | 0 | SSE | 1 | SSE |
| New Brunswick | NJ | 2026-05-09 05:35 | Mesonet | 54 | 45 | 70 | 29.91 | 0.00 | 1 | SSE | 2 | SSE |
| New Brunswick | NJ | 2026-05-09 05:30 | Mesonet | 54 | 44 | 69 | 29.91 | 0.00 | 2 | SW | 3 | SSW |
| New Brunswick | NJ | 2026-05-09 05:20 | Mesonet | 54 | 45 | 72 | 29.91 | 0.00 | 1 | SSE | 3 | SSW |
| New Brunswick | NJ | 2026-05-09 06:05 | Mesonet | 52 | 45 | 77 | 29.91 | 0.00 | 2 | ESE | 2 | ESE |
| New Brunswick | NJ | 2026-05-09 05:15 | Mesonet | 54 | 43 | 67 | 29.91 | 0.00 | 2 | SSW | 4 | S |
| New Brunswick | NJ | 2026-05-09 05:10 | Mesonet | 53 | 43 | 69 | 29.91 | 0.00 | 1 | SSW | 3 | S |
| New Brunswick | NJ | 2026-05-09 05:05 | Mesonet | 53 | 46 | 77 | 29.91 | 0.00 | 0 | SW | 3 | S |
| New Brunswick | NJ | 2026-05-09 05:00 | Mesonet | 53 | 44 | 69 | 29.90 | 0.00 | 1 | SSW | 2 | SSW |
| New Brunswick | NJ | 2026-05-09 04:55 | Mesonet | 54 | 44 | 71 | 29.90 | 0.00 | 0 | SSW | 1 | SW |
| New Brunswick | NJ | 2026-05-09 04:50 | Mesonet | 54 | 44 | 68 | 29.91 | 0.00 | 1 | SW | 3 | S |
| New Brunswick | NJ | 2026-05-09 06:00 | Mesonet | 53 | 45 | 74 | 29.91 | 0.00 | 1 | ESE | 1 | ESE |
| New Brunswick | NJ | 2026-05-09 06:10 | Mesonet | 52 | 45 | 77 | 29.91 | 0.00 | 2 | ESE | 3 | ESE |
| New Brunswick | NJ | 2026-05-09 04:40 | Mesonet | 55 | 45 | 68 | 29.90 | 0.00 | 0 | S | 4 | SSW |
| New Brunswick | NJ | 2026-05-09 06:55 | Mesonet | 54 | 46 | 74 | 29.92 | 0.00 | 1 | SE | 2 | SE |
| New Brunswick | NJ | 2026-05-09 07:25 | Mesonet | 54 | 46 | 74 | 29.92 | 0.00 | 2 | SSE | 3 | S |
| New Brunswick | NJ | 2026-05-09 07:20 | Mesonet | 54 | 48 | 79 | 29.92 | 0.00 | 3 | SE | 3 | SE |
| New Brunswick | NJ | 2026-05-09 07:15 | Mesonet | 54 | 47 | 77 | 29.92 | 0.00 | 1 | E | 3 | SE |
| New Brunswick | NJ | 2026-05-09 07:10 | Mesonet | 54 | 47 | 78 | 29.92 | 0.00 | 2 | ESE | 3 | ESE |
| New Brunswick | NJ | 2026-05-09 07:05 | Mesonet | 54 | 46 | 74 | 29.92 | 0.00 | 2 | SE | 2 | SE |
| New Brunswick | NJ | 2026-05-09 07:00 | Mesonet | 54 | 45 | 71 | 29.92 | 0.00 | 1 | ENE | 3 | SE |
| New Brunswick | NJ | 2026-05-09 06:50 | Mesonet | 54 | 46 | 73 | 29.92 | 0.00 | 1 | SE | 3 | SE |
| New Brunswick | NJ | 2026-05-09 06:15 | Mesonet | 53 | 46 | 77 | 29.91 | 0.00 | 2 | SSE | 3 | SE |
| New Brunswick | NJ | 2026-05-09 06:45 | Mesonet | 54 | 45 | 72 | 29.92 | 0.00 | 0 | ESE | 2 | ESE |
| New Brunswick | NJ | 2026-05-09 06:40 | Mesonet | 55 | 45 | 70 | 29.92 | 0.00 | 0 | SSW | 3 | SE |
| New Brunswick | NJ | 2026-05-09 06:35 | Mesonet | 54 | 44 | 69 | 29.92 | 0.00 | 2 | S | 4 | SSE |
| New Brunswick | NJ | 2026-05-09 06:30 | Mesonet | 54 | 45 | 70 | 29.91 | 0.00 | 1 | SE | 3 | S |
| New Brunswick | NJ | 2026-05-09 06:25 | Mesonet | 54 | 45 | 72 | 29.91 | 0.00 | 2 | SE | 4 | SE |
| New Brunswick | NJ | 2026-05-09 06:20 | Mesonet | 53 | 45 | 74 | 29.91 | 0.00 | 2 | SE | 4 | SE |
| New Brunswick | NJ | 2026-05-09 04:45 | Mesonet | 54 | 44 | 67 | 29.91 | 0.00 | 2 | SW | 2 | SW |
| New Brunswick | NJ | 2026-05-09 04:35 | Mesonet | 54 | 43 | 67 | 29.91 | 0.00 | 4 | SSW | 4 | SW |
| New Brunswick | NJ | 2026-05-09 01:40 | Mesonet | 53 | 46 | 79 | 29.93 | 0.00 | 0 | ESE | 1 | ESE |
| New Brunswick | NJ | 2026-05-09 02:20 | Mesonet | 52 | 47 | 83 | 29.92 | 0.00 | 0 | S | 1 | S |
| New Brunswick | NJ | 2026-05-09 02:50 | Mesonet | 52 | 47 | 81 | 29.92 | 0.00 | 0 | WSW | 1 | WSW |
| New Brunswick | NJ | 2026-05-09 02:45 | Mesonet | 52 | 46 | 80 | 29.92 | 0.00 | 0 | SW | 1 | SW |
| New Brunswick | NJ | 2026-05-09 02:40 | Mesonet | 52 | 47 | 82 | 29.92 | 0.00 | 0 | SSE | 0 | SSE |
| New Brunswick | NJ | 2026-05-09 02:35 | Mesonet | 52 | 47 | 83 | 29.92 | 0.00 | 0 | SSE | 0 | SSE |
| New Brunswick | NJ | 2026-05-09 02:30 | Mesonet | 52 | 47 | 81 | 29.92 | 0.00 | 0 | SSE | 3 | SSE |
| New Brunswick | NJ | 2026-05-09 02:25 | Mesonet | 52 | 47 | 83 | 29.92 | 0.00 | 0 | S | 0 | S |
| New Brunswick | NJ | 2026-05-09 02:15 | Mesonet | 52 | 47 | 83 | 29.92 | 0.00 | 0 | S | 1 | S |
| New Brunswick | NJ | 2026-05-09 03:00 | Mesonet | 53 | 46 | 76 | 29.91 | 0.00 | 3 | SW | 3 | S |
| New Brunswick | NJ | 2026-05-09 02:10 | Mesonet | 52 | 47 | 83 | 29.93 | 0.00 | 1 | S | 2 | S |
| New Brunswick | NJ | 2026-05-09 02:05 | Mesonet | 52 | 47 | 83 | 29.93 | 0.00 | 2 | SSW | 2 | SSW |
| New Brunswick | NJ | 2026-05-09 02:00 | Mesonet | 52 | 46 | 80 | 29.93 | 0.00 | 0 | ENE | 0 | ENE |
| New Brunswick | NJ | 2026-05-09 01:55 | Mesonet | 53 | 47 | 81 | 29.93 | 0.00 | 0 | ENE | 0 | ENE |
| New Brunswick | NJ | 2026-05-09 01:50 | Mesonet | 52 | 47 | 83 | 29.93 | 0.00 | 0 | ENE | 0 | ENE |
| New Brunswick | NJ | 2026-05-09 01:45 | Mesonet | 52 | 46 | 80 | 29.93 | 0.00 | 0 | N | 1 | N |
| New Brunswick | NJ | 2026-05-09 02:55 | Mesonet | 53 | 46 | 78 | 29.92 | 0.00 | 1 | SW | 4 | SW |
| New Brunswick | NJ | 2026-05-09 03:05 | Mesonet | 53 | 46 | 76 | 29.91 | 0.00 | 1 | WSW | 3 | SSW |
| New Brunswick | NJ | 2026-05-09 04:30 | Mesonet | 54 | 44 | 68 | 29.91 | 0.00 | 1 | SW | 4 | SSW |
| New Brunswick | NJ | 2026-05-09 03:55 | Mesonet | 53 | 44 | 74 | 29.91 | 0.00 | 1 | SW | 4 | S |
| New Brunswick | NJ | 2026-05-09 04:25 | Mesonet | 53 | 44 | 70 | 29.91 | 0.00 | 3 | SW | 5 | SSW |
| New Brunswick | NJ | 2026-05-09 04:20 | Mesonet | 53 | 44 | 72 | 29.91 | 0.00 | 1 | SW | 3 | SSE |
| New Brunswick | NJ | 2026-05-09 04:15 | Mesonet | 53 | 44 | 71 | 29.91 | 0.00 | 1 | SSW | 3 | SSW |
| New Brunswick | NJ | 2026-05-09 04:10 | Mesonet | 53 | 44 | 70 | 29.91 | 0.00 | 1 | S | 3 | S |
| New Brunswick | NJ | 2026-05-09 04:05 | Mesonet | 53 | 44 | 73 | 29.91 | 0.00 | 1 | S | 4 | SSW |
| New Brunswick | NJ | 2026-05-09 04:00 | Mesonet | 54 | 44 | 69 | 29.91 | 0.00 | 2 | SW | 4 | SSW |
| New Brunswick | NJ | 2026-05-09 03:50 | Mesonet | 52 | 44 | 74 | 29.91 | 0.00 | 1 | SSE | 4 | S |
| New Brunswick | NJ | 2026-05-09 03:10 | Mesonet | 53 | 46 | 75 | 29.91 | 0.00 | 2 | WNW | 2 | W |
| New Brunswick | NJ | 2026-05-09 03:45 | Mesonet | 52 | 45 | 76 | 29.91 | 0.00 | 2 | SSE | 3 | SSW |
| New Brunswick | NJ | 2026-05-09 03:40 | Mesonet | 52 | 46 | 80 | 29.91 | 0.00 | 1 | SW | 2 | SSW |
| New Brunswick | NJ | 2026-05-09 03:35 | Mesonet | 52 | 46 | 79 | 29.91 | 0.00 | 0 | SSW | 1 | SW |
| New Brunswick | NJ | 2026-05-09 03:30 | Mesonet | 53 | 46 | 78 | 29.91 | 0.00 | 0 | WSW | 2 | WSW |
| New Brunswick | NJ | 2026-05-09 03:25 | Mesonet | 53 | 46 | 78 | 29.91 | 0.00 | 0 | SSW | 2 | SSW |
| New Brunswick | NJ | 2026-05-09 03:20 | Mesonet | 53 | 47 | 79 | 29.91 | 0.00 | 1 | SSW | 2 | SSW |
| New Brunswick | NJ | 2026-05-09 03:15 | Mesonet | 53 | 46 | 76 | 29.91 | 0.00 | 0 | WNW | 2 | WNW |
| New Brunswick | NJ | 2026-05-09 19:30 | Mesonet | 55 | 54 | 96 | 29.85 | 0.00 | 0 | NNE | 2 | ESE |
data collection created in 0.06182599067688 (queried in 0.011468) rendered in: 0.00084900856018066

